sensor_id;sensor_type;location;lat;lon;timestamp;P1;durP1;ratioP1;P2;durP2;ratioP2
69596;SDS011;70000;51.176;-115.568;2023-05-07T00:02:01;5.10;;;1.80;;
69596;SDS011;70000;51.176;-115.568;2023-05-07T00:04:31;4.70;;;2.00;;
69596;SDS011;70000;51.176;-115.568;2023-05-07T00:07:08;4.70;;;2.00;;
69596;SDS011;70000;51.176;-115.568;2023-05-07T00:09:37;4.40;;;1.80;;
69596;SDS011;70000;51.176;-115.568;2023-05-07T00:12:07;5.70;;;3.20;;
69596;SDS011;70000;51.176;-115.568;2023-05-07T00:15:13;4.90;;;2.20;;
69596;SDS011;70000;51.176;-115.568;2023-05-07T00:17:41;5.70;;;1.90;;
69596;SDS011;70000;51.176;-115.568;2023-05-07T00:20:10;6.20;;;2.60;;
69596;SDS011;70000;51.176;-115.568;2023-05-07T00:22:40;7.30;;;2.50;;
69596;SDS011;70000;51.176;-115.568;2023-05-07T00:25:08;5.30;;;2.30;;
69596;SDS011;70000;51.176;-115.568;2023-05-07T00:27:37;6.00;;;2.50;;
69596;SDS011;70000;51.176;-115.568;2023-05-07T00:30:06;5.60;;;3.50;;
69596;SDS011;70000;51.176;-115.568;2023-05-07T00:32:36;5.90;;;3.70;;
69596;SDS011;70000;51.176;-115.568;2023-05-07T00:35:05;6.70;;;3.30;;
69596;SDS011;70000;51.176;-115.568;2023-05-07T00:37:34;6.00;;;2.00;;
69596;SDS011;70000;51.176;-115.568;2023-05-07T00:40:03;4.50;;;1.90;;
69596;SDS011;70000;51.176;-115.568;2023-05-07T00:42:35;4.80;;;2.10;;
69596;SDS011;70000;51.176;-115.568;2023-05-07T00:45:04;4.90;;;2.20;;
69596;SDS011;70000;51.176;-115.568;2023-05-07T00:47:32;5.20;;;2.50;;
69596;SDS011;70000;51.176;-115.568;2023-05-07T00:50:04;5.10;;;2.50;;
69596;SDS011;70000;51.176;-115.568;2023-05-07T00:52:33;6.30;;;2.70;;
69596;SDS011;70000;51.176;-115.568;2023-05-07T00:55:05;5.60;;;2.50;;
69596;SDS011;70000;51.176;-115.568;2023-05-07T00:57:40;4.80;;;2.00;;
69596;SDS011;70000;51.176;-115.568;2023-05-07T01:00:09;4.90;;;2.30;;
69596;SDS011;70000;51.176;-115.568;2023-05-07T01:02:41;5.50;;;2.40;;
69596;SDS011;70000;51.176;-115.568;2023-05-07T01:05:12;4.60;;;2.00;;
69596;SDS011;70000;51.176;-115.568;2023-05-07T01:07:44;5.00;;;2.40;;
69596;SDS011;70000;51.176;-115.568;2023-05-07T01:10:14;5.10;;;2.00;;
69596;SDS011;70000;51.176;-115.568;2023-05-07T01:12:44;4.80;;;1.80;;
69596;SDS011;70000;51.176;-115.568;2023-05-07T01:15:14;4.90;;;2.30;;
69596;SDS011;70000;51.176;-115.568;2023-05-07T01:17:43;5.40;;;2.40;;
69596;SDS011;70000;51.176;-115.568;2023-05-07T01:20:15;5.60;;;2.20;;
69596;SDS011;70000;51.176;-115.568;2023-05-07T01:22:46;5.20;;;2.30;;
69596;SDS011;70000;51.176;-115.568;2023-05-07T01:25:15;5.20;;;2.30;;
69596;SDS011;70000;51.176;-115.568;2023-05-07T01:27:43;4.90;;;2.30;;
69596;SDS011;70000;51.176;-115.568;2023-05-07T01:30:15;5.00;;;2.50;;
69596;SDS011;70000;51.176;-115.568;2023-05-07T01:32:50;5.10;;;2.40;;
69596;SDS011;70000;51.176;-115.568;2023-05-07T01:35:30;5.30;;;2.40;;
69596;SDS011;70000;51.176;-115.568;2023-05-07T01:38:03;6.30;;;2.20;;
69596;SDS011;70000;51.176;-115.568;2023-05-07T01:40:33;5.90;;;2.90;;
69596;SDS011;70000;51.176;-115.568;2023-05-07T01:46:20;5.00;;;2.20;;
69596;SDS011;70000;51.176;-115.568;2023-05-07T01:48:50;5.20;;;2.20;;
69596;SDS011;70000;51.176;-115.568;2023-05-07T01:51:21;5.90;;;2.50;;
69596;SDS011;70000;51.176;-115.568;2023-05-07T01:53:53;5.10;;;2.40;;
69596;SDS011;70000;51.176;-115.568;2023-05-07T01:56:23;5.40;;;2.50;;
69596;SDS011;70000;51.176;-115.568;2023-05-07T01:58:52;5.10;;;2.30;;
69596;SDS011;70000;51.176;-115.568;2023-05-07T02:01:22;5.90;;;2.70;;
69596;SDS011;70000;51.176;-115.568;2023-05-07T02:03:51;5.10;;;2.00;;
69596;SDS011;70000;51.176;-115.568;2023-05-07T02:06:21;5.30;;;2.30;;
69596;SDS011;70000;51.176;-115.568;2023-05-07T02:08:52;5.20;;;2.60;;
69596;SDS011;70000;51.176;-115.568;2023-05-07T02:11:22;5.20;;;2.40;;
69596;SDS011;70000;51.176;-115.568;2023-05-07T02:13:51;5.10;;;2.00;;
69596;SDS011;70000;51.176;-115.568;2023-05-07T02:16:21;5.90;;;2.70;;
69596;SDS011;70000;51.176;-115.568;2023-05-07T02:18:52;5.60;;;2.80;;
69596;SDS011;70000;51.176;-115.568;2023-05-07T02:21:22;5.50;;;2.50;;
69596;SDS011;70000;51.176;-115.568;2023-05-07T02:23:51;5.30;;;2.60;;
69596;SDS011;70000;51.176;-115.568;2023-05-07T02:30:03;5.60;;;3.00;;
69596;SDS011;70000;51.176;-115.568;2023-05-07T02:34:52;6.80;;;2.90;;
69596;SDS011;70000;51.176;-115.568;2023-05-07T02:37:21;6.70;;;3.40;;
69596;SDS011;70000;51.176;-115.568;2023-05-07T02:39:55;6.50;;;2.90;;
69596;SDS011;70000;51.176;-115.568;2023-05-07T02:42:24;7.40;;;4.20;;
69596;SDS011;70000;51.176;-115.568;2023-05-07T02:45:03;7.10;;;2.70;;
69596;SDS011;70000;51.176;-115.568;2023-05-07T02:50:52;9.10;;;4.10;;
69596;SDS011;70000;51.176;-115.568;2023-05-07T02:53:25;6.90;;;3.00;;
69596;SDS011;70000;51.176;-115.568;2023-05-07T02:56:02;7.00;;;3.50;;
69596;SDS011;70000;51.176;-115.568;2023-05-07T02:58:38;9.00;;;4.60;;
69596;SDS011;70000;51.176;-115.568;2023-05-07T03:01:13;8.00;;;4.00;;
69596;SDS011;70000;51.176;-115.568;2023-05-07T03:03:49;6.80;;;3.00;;
69596;SDS011;70000;51.176;-115.568;2023-05-07T03:06:28;7.50;;;3.60;;
69596;SDS011;70000;51.176;-115.568;2023-05-07T03:09:44;6.70;;;4.00;;
69596;SDS011;70000;51.176;-115.568;2023-05-07T03:12:16;7.80;;;3.80;;
69596;SDS011;70000;51.176;-115.568;2023-05-07T03:20:28;7.20;;;3.40;;
69596;SDS011;70000;51.176;-115.568;2023-05-07T03:23:05;6.00;;;2.40;;
69596;SDS011;70000;51.176;-115.568;2023-05-07T03:25:39;5.50;;;2.90;;
69596;SDS011;70000;51.176;-115.568;2023-05-07T03:28:15;5.50;;;2.30;;
69596;SDS011;70000;51.176;-115.568;2023-05-07T03:30:57;6.80;;;3.70;;
69596;SDS011;70000;51.176;-115.568;2023-05-07T03:33:29;6.20;;;2.90;;
69596;SDS011;70000;51.176;-115.568;2023-05-07T03:36:16;5.60;;;3.00;;
69596;SDS011;70000;51.176;-115.568;2023-05-07T03:38:48;6.10;;;2.90;;
69596;SDS011;70000;51.176;-115.568;2023-05-07T03:41:18;7.10;;;3.00;;
69596;SDS011;70000;51.176;-115.568;2023-05-07T03:43:48;6.20;;;3.20;;
69596;SDS011;70000;51.176;-115.568;2023-05-07T03:46:17;6.30;;;3.10;;
69596;SDS011;70000;51.176;-115.568;2023-05-07T03:48:47;6.70;;;3.00;;
69596;SDS011;70000;51.176;-115.568;2023-05-07T03:51:16;6.10;;;3.50;;
69596;SDS011;70000;51.176;-115.568;2023-05-07T03:53:48;7.00;;;2.90;;
69596;SDS011;70000;51.176;-115.568;2023-05-07T03:56:17;9.40;;;2.90;;
69596;SDS011;70000;51.176;-115.568;2023-05-07T04:02:03;5.50;;;2.80;;
69596;SDS011;70000;51.176;-115.568;2023-05-07T04:05:19;6.30;;;2.90;;
69596;SDS011;70000;51.176;-115.568;2023-05-07T04:08:14;7.10;;;2.70;;
69596;SDS011;70000;51.176;-115.568;2023-05-07T04:10:57;5.50;;;2.60;;
69596;SDS011;70000;51.176;-115.568;2023-05-07T04:13:27;8.80;;;3.40;;
69596;SDS011;70000;51.176;-115.568;2023-05-07T04:16:03;7.20;;;2.70;;
69596;SDS011;70000;51.176;-115.568;2023-05-07T04:18:39;6.70;;;3.30;;
69596;SDS011;70000;51.176;-115.568;2023-05-07T04:21:17;6.30;;;3.00;;
69596;SDS011;70000;51.176;-115.568;2023-05-07T04:23:50;7.00;;;3.20;;
69596;SDS011;70000;51.176;-115.568;2023-05-07T04:26:22;7.20;;;2.70;;
69596;SDS011;70000;51.176;-115.568;2023-05-07T04:28:57;6.20;;;2.80;;
69596;SDS011;70000;51.176;-115.568;2023-05-07T04:31:29;7.00;;;3.10;;
69596;SDS011;70000;51.176;-115.568;2023-05-07T04:34:08;6.90;;;2.90;;
69596;SDS011;70000;51.176;-115.568;2023-05-07T04:36:39;6.70;;;2.90;;
69596;SDS011;70000;51.176;-115.568;2023-05-07T04:39:11;7.30;;;3.10;;
69596;SDS011;70000;51.176;-115.568;2023-05-07T04:41:49;6.30;;;2.70;;
69596;SDS011;70000;51.176;-115.568;2023-05-07T04:44:18;7.10;;;3.20;;
69596;SDS011;70000;51.176;-115.568;2023-05-07T04:46:47;6.60;;;3.50;;
69596;SDS011;70000;51.176;-115.568;2023-05-07T04:49:19;6.50;;;3.30;;
69596;SDS011;70000;51.176;-115.568;2023-05-07T04:51:51;7.30;;;3.10;;
69596;SDS011;70000;51.176;-115.568;2023-05-07T04:54:26;7.60;;;2.80;;
69596;SDS011;70000;51.176;-115.568;2023-05-07T04:57:10;6.60;;;3.30;;
69596;SDS011;70000;51.176;-115.568;2023-05-07T04:59:42;6.20;;;3.50;;
69596;SDS011;70000;51.176;-115.568;2023-05-07T05:02:12;5.80;;;2.80;;
69596;SDS011;70000;51.176;-115.568;2023-05-07T05:04:50;7.10;;;3.20;;
69596;SDS011;70000;51.176;-115.568;2023-05-07T05:07:25;8.40;;;2.80;;
69596;SDS011;70000;51.176;-115.568;2023-05-07T05:09:56;6.80;;;3.00;;
69596;SDS011;70000;51.176;-115.568;2023-05-07T05:12:29;7.00;;;3.30;;
69596;SDS011;70000;51.176;-115.568;2023-05-07T05:15:01;8.10;;;3.80;;
69596;SDS011;70000;51.176;-115.568;2023-05-07T05:17:30;6.40;;;3.00;;
69596;SDS011;70000;51.176;-115.568;2023-05-07T05:19:59;6.90;;;3.00;;
69596;SDS011;70000;51.176;-115.568;2023-05-07T05:22:32;6.80;;;3.10;;
69596;SDS011;70000;51.176;-115.568;2023-05-07T05:25:03;6.10;;;3.20;;
69596;SDS011;70000;51.176;-115.568;2023-05-07T05:27:38;7.00;;;2.80;;
69596;SDS011;70000;51.176;-115.568;2023-05-07T05:30:16;6.90;;;3.50;;
69596;SDS011;70000;51.176;-115.568;2023-05-07T05:32:47;6.70;;;3.20;;
69596;SDS011;70000;51.176;-115.568;2023-05-07T05:35:16;6.40;;;3.40;;
69596;SDS011;70000;51.176;-115.568;2023-05-07T05:37:45;6.80;;;3.30;;
69596;SDS011;70000;51.176;-115.568;2023-05-07T05:40:15;6.40;;;3.20;;
69596;SDS011;70000;51.176;-115.568;2023-05-07T05:42:44;6.30;;;2.90;;
69596;SDS011;70000;51.176;-115.568;2023-05-07T05:45:16;5.40;;;2.80;;
69596;SDS011;70000;51.176;-115.568;2023-05-07T05:47:45;7.00;;;3.20;;
69596;SDS011;70000;51.176;-115.568;2023-05-07T05:50:15;6.50;;;3.10;;
69596;SDS011;70000;51.176;-115.568;2023-05-07T05:52:43;6.40;;;2.80;;
69596;SDS011;70000;51.176;-115.568;2023-05-07T05:55:12;6.50;;;2.60;;
69596;SDS011;70000;51.176;-115.568;2023-05-07T05:57:41;7.10;;;3.20;;
69596;SDS011;70000;51.176;-115.568;2023-05-07T06:00:11;10.40;;;3.20;;
69596;SDS011;70000;51.176;-115.568;2023-05-07T06:02:40;5.90;;;2.90;;
69596;SDS011;70000;51.176;-115.568;2023-05-07T06:05:11;6.80;;;3.50;;
69596;SDS011;70000;51.176;-115.568;2023-05-07T06:07:40;5.90;;;2.90;;
69596;SDS011;70000;51.176;-115.568;2023-05-07T06:10:09;7.60;;;3.60;;
69596;SDS011;70000;51.176;-115.568;2023-05-07T06:12:39;7.40;;;3.60;;
69596;SDS011;70000;51.176;-115.568;2023-05-07T06:15:09;8.00;;;3.30;;
69596;SDS011;70000;51.176;-115.568;2023-05-07T06:17:38;6.20;;;3.40;;
69596;SDS011;70000;51.176;-115.568;2023-05-07T06:20:08;6.30;;;3.40;;
69596;SDS011;70000;51.176;-115.568;2023-05-07T06:22:38;6.20;;;3.20;;
69596;SDS011;70000;51.176;-115.568;2023-05-07T06:25:07;6.40;;;2.90;;
69596;SDS011;70000;51.176;-115.568;2023-05-07T06:27:36;6.30;;;3.30;;
69596;SDS011;70000;51.176;-115.568;2023-05-07T06:30:07;6.50;;;3.40;;
69596;SDS011;70000;51.176;-115.568;2023-05-07T06:32:37;7.00;;;3.30;;
69596;SDS011;70000;51.176;-115.568;2023-05-07T06:35:08;6.20;;;2.70;;
69596;SDS011;70000;51.176;-115.568;2023-05-07T06:37:38;6.80;;;3.50;;
69596;SDS011;70000;51.176;-115.568;2023-05-07T06:40:08;6.90;;;3.50;;
69596;SDS011;70000;51.176;-115.568;2023-05-07T06:42:38;7.20;;;3.50;;
69596;SDS011;70000;51.176;-115.568;2023-05-07T06:45:08;7.70;;;3.60;;
69596;SDS011;70000;51.176;-115.568;2023-05-07T06:47:38;7.20;;;3.20;;
69596;SDS011;70000;51.176;-115.568;2023-05-07T06:50:07;6.40;;;3.70;;
69596;SDS011;70000;51.176;-115.568;2023-05-07T06:52:38;7.60;;;3.90;;
69596;SDS011;70000;51.176;-115.568;2023-05-07T06:55:08;6.90;;;4.00;;
69596;SDS011;70000;51.176;-115.568;2023-05-07T06:57:38;7.90;;;3.70;;
69596;SDS011;70000;51.176;-115.568;2023-05-07T07:00:07;8.10;;;4.00;;
69596;SDS011;70000;51.176;-115.568;2023-05-07T07:02:38;8.10;;;3.20;;
69596;SDS011;70000;51.176;-115.568;2023-05-07T07:05:07;7.90;;;3.90;;
69596;SDS011;70000;51.176;-115.568;2023-05-07T07:07:39;7.70;;;3.30;;
69596;SDS011;70000;51.176;-115.568;2023-05-07T07:10:08;8.90;;;4.00;;
69596;SDS011;70000;51.176;-115.568;2023-05-07T07:12:37;6.90;;;3.20;;
69596;SDS011;70000;51.176;-115.568;2023-05-07T07:15:07;6.70;;;3.80;;
69596;SDS011;70000;51.176;-115.568;2023-05-07T07:17:36;8.30;;;4.00;;
69596;SDS011;70000;51.176;-115.568;2023-05-07T07:20:06;9.00;;;4.40;;
69596;SDS011;70000;51.176;-115.568;2023-05-07T07:22:37;7.90;;;3.90;;
69596;SDS011;70000;51.176;-115.568;2023-05-07T07:25:12;7.70;;;4.00;;
69596;SDS011;70000;51.176;-115.568;2023-05-07T07:27:41;8.10;;;4.60;;
69596;SDS011;70000;51.176;-115.568;2023-05-07T07:30:10;9.40;;;4.50;;
69596;SDS011;70000;51.176;-115.568;2023-05-07T07:32:40;8.40;;;4.00;;
69596;SDS011;70000;51.176;-115.568;2023-05-07T07:35:09;8.70;;;4.10;;
69596;SDS011;70000;51.176;-115.568;2023-05-07T07:37:38;9.10;;;4.70;;
69596;SDS011;70000;51.176;-115.568;2023-05-07T07:40:07;9.00;;;4.50;;
69596;SDS011;70000;51.176;-115.568;2023-05-07T07:42:37;10.20;;;4.90;;
69596;SDS011;70000;51.176;-115.568;2023-05-07T07:45:07;7.60;;;4.10;;
69596;SDS011;70000;51.176;-115.568;2023-05-07T07:47:36;6.90;;;3.60;;
69596;SDS011;70000;51.176;-115.568;2023-05-07T07:50:07;8.50;;;4.10;;
69596;SDS011;70000;51.176;-115.568;2023-05-07T07:52:38;9.60;;;4.20;;
69596;SDS011;70000;51.176;-115.568;2023-05-07T07:55:08;8.90;;;4.80;;
69596;SDS011;70000;51.176;-115.568;2023-05-07T07:57:37;7.80;;;4.70;;
69596;SDS011;70000;51.176;-115.568;2023-05-07T08:00:07;10.00;;;4.90;;
69596;SDS011;70000;51.176;-115.568;2023-05-07T08:02:37;8.60;;;4.80;;
69596;SDS011;70000;51.176;-115.568;2023-05-07T08:05:06;10.00;;;4.60;;
69596;SDS011;70000;51.176;-115.568;2023-05-07T08:07:36;11.20;;;5.00;;
69596;SDS011;70000;51.176;-115.568;2023-05-07T08:10:05;8.10;;;4.70;;
69596;SDS011;70000;51.176;-115.568;2023-05-07T08:12:35;7.70;;;4.10;;
69596;SDS011;70000;51.176;-115.568;2023-05-07T08:15:04;7.40;;;4.00;;
69596;SDS011;70000;51.176;-115.568;2023-05-07T08:17:39;7.90;;;4.20;;
69596;SDS011;70000;51.176;-115.568;2023-05-07T08:20:10;7.80;;;4.30;;
69596;SDS011;70000;51.176;-115.568;2023-05-07T08:22:39;8.00;;;3.70;;
69596;SDS011;70000;51.176;-115.568;2023-05-07T08:25:21;8.30;;;4.40;;
69596;SDS011;70000;51.176;-115.568;2023-05-07T08:27:50;8.60;;;4.30;;
69596;SDS011;70000;51.176;-115.568;2023-05-07T08:30:21;9.40;;;5.00;;
69596;SDS011;70000;51.176;-115.568;2023-05-07T08:32:50;9.60;;;5.10;;
69596;SDS011;70000;51.176;-115.568;2023-05-07T08:35:19;9.20;;;4.50;;
69596;SDS011;70000;51.176;-115.568;2023-05-07T08:37:48;9.50;;;4.10;;
69596;SDS011;70000;51.176;-115.568;2023-05-07T08:40:17;8.40;;;4.90;;
69596;SDS011;70000;51.176;-115.568;2023-05-07T08:42:49;10.70;;;5.30;;
69596;SDS011;70000;51.176;-115.568;2023-05-07T08:45:20;9.60;;;4.90;;
69596;SDS011;70000;51.176;-115.568;2023-05-07T08:47:58;8.70;;;5.00;;
69596;SDS011;70000;51.176;-115.568;2023-05-07T08:50:30;9.00;;;4.90;;
69596;SDS011;70000;51.176;-115.568;2023-05-07T08:52:59;10.30;;;5.20;;
69596;SDS011;70000;51.176;-115.568;2023-05-07T08:55:28;8.20;;;5.20;;
69596;SDS011;70000;51.176;-115.568;2023-05-07T08:57:58;9.40;;;5.30;;
69596;SDS011;70000;51.176;-115.568;2023-05-07T09:00:27;11.80;;;5.20;;
69596;SDS011;70000;51.176;-115.568;2023-05-07T09:02:56;9.50;;;5.70;;
69596;SDS011;70000;51.176;-115.568;2023-05-07T09:05:25;9.80;;;5.60;;
69596;SDS011;70000;51.176;-115.568;2023-05-07T09:07:54;10.20;;;5.60;;
69596;SDS011;70000;51.176;-115.568;2023-05-07T09:10:24;9.70;;;5.80;;
69596;SDS011;70000;51.176;-115.568;2023-05-07T09:12:54;12.00;;;5.90;;
69596;SDS011;70000;51.176;-115.568;2023-05-07T09:15:27;10.00;;;5.80;;
69596;SDS011;70000;51.176;-115.568;2023-05-07T09:18:00;10.00;;;5.20;;
69596;SDS011;70000;51.176;-115.568;2023-05-07T09:20:32;9.70;;;5.30;;
69596;SDS011;70000;51.176;-115.568;2023-05-07T09:23:04;9.30;;;5.30;;
69596;SDS011;70000;51.176;-115.568;2023-05-07T09:25:36;10.10;;;5.70;;
69596;SDS011;70000;51.176;-115.568;2023-05-07T09:28:06;9.50;;;5.90;;
69596;SDS011;70000;51.176;-115.568;2023-05-07T09:30:38;10.30;;;5.60;;
69596;SDS011;70000;51.176;-115.568;2023-05-07T09:33:07;12.80;;;5.90;;
69596;SDS011;70000;51.176;-115.568;2023-05-07T09:35:38;10.00;;;5.50;;
69596;SDS011;70000;51.176;-115.568;2023-05-07T09:38:08;9.80;;;5.90;;
69596;SDS011;70000;51.176;-115.568;2023-05-07T09:40:37;11.20;;;6.20;;
69596;SDS011;70000;51.176;-115.568;2023-05-07T09:43:13;11.90;;;5.90;;
69596;SDS011;70000;51.176;-115.568;2023-05-07T09:45:46;10.00;;;6.10;;
69596;SDS011;70000;51.176;-115.568;2023-05-07T09:48:19;10.60;;;6.10;;
69596;SDS011;70000;51.176;-115.568;2023-05-07T09:50:56;12.10;;;5.40;;
69596;SDS011;70000;51.176;-115.568;2023-05-07T09:53:30;11.20;;;6.00;;
69596;SDS011;70000;51.176;-115.568;2023-05-07T09:56:02;10.40;;;5.90;;
69596;SDS011;70000;51.176;-115.568;2023-05-07T09:58:37;10.80;;;5.60;;
69596;SDS011;70000;51.176;-115.568;2023-05-07T10:01:11;10.20;;;5.40;;
69596;SDS011;70000;51.176;-115.568;2023-05-07T10:03:44;11.00;;;6.00;;
69596;SDS011;70000;51.176;-115.568;2023-05-07T10:06:17;9.20;;;5.20;;
69596;SDS011;70000;51.176;-115.568;2023-05-07T10:08:48;12.30;;;6.10;;
69596;SDS011;70000;51.176;-115.568;2023-05-07T10:11:19;11.20;;;6.40;;
69596;SDS011;70000;51.176;-115.568;2023-05-07T10:13:52;10.40;;;5.90;;
69596;SDS011;70000;51.176;-115.568;2023-05-07T10:16:22;10.90;;;5.70;;
69596;SDS011;70000;51.176;-115.568;2023-05-07T10:18:55;11.40;;;5.90;;
69596;SDS011;70000;51.176;-115.568;2023-05-07T10:21:27;11.50;;;6.10;;
69596;SDS011;70000;51.176;-115.568;2023-05-07T10:24:08;10.40;;;6.50;;
69596;SDS011;70000;51.176;-115.568;2023-05-07T10:26:45;9.50;;;5.80;;
69596;SDS011;70000;51.176;-115.568;2023-05-07T10:35:21;8.30;;;4.90;;
69596;SDS011;70000;51.176;-115.568;2023-05-07T10:37:54;9.40;;;5.10;;
69596;SDS011;70000;51.176;-115.568;2023-05-07T10:40:23;8.60;;;5.00;;
69596;SDS011;70000;51.176;-115.568;2023-05-07T10:43:00;9.20;;;4.90;;
69596;SDS011;70000;51.176;-115.568;2023-05-07T10:45:36;9.60;;;5.20;;
69596;SDS011;70000;51.176;-115.568;2023-05-07T10:48:15;9.90;;;5.90;;
69596;SDS011;70000;51.176;-115.568;2023-05-07T10:51:32;11.60;;;5.60;;
69596;SDS011;70000;51.176;-115.568;2023-05-07T10:56:41;10.40;;;5.00;;
69596;SDS011;70000;51.176;-115.568;2023-05-07T11:02:05;11.30;;;5.60;;
69596;SDS011;70000;51.176;-115.568;2023-05-07T11:04:42;11.70;;;6.10;;
69596;SDS011;70000;51.176;-115.568;2023-05-07T11:07:30;10.20;;;5.90;;
69596;SDS011;70000;51.176;-115.568;2023-05-07T11:10:01;9.50;;;5.70;;
69596;SDS011;70000;51.176;-115.568;2023-05-07T11:15:10;10.50;;;5.90;;
69596;SDS011;70000;51.176;-115.568;2023-05-07T11:17:59;10.50;;;5.50;;
69596;SDS011;70000;51.176;-115.568;2023-05-07T11:26:07;9.10;;;4.70;;
69596;SDS011;70000;51.176;-115.568;2023-05-07T11:28:39;10.20;;;5.00;;
69596;SDS011;70000;51.176;-115.568;2023-05-07T11:31:10;8.40;;;4.50;;
69596;SDS011;70000;51.176;-115.568;2023-05-07T11:33:43;8.80;;;4.70;;
69596;SDS011;70000;51.176;-115.568;2023-05-07T11:36:13;8.80;;;5.00;;
69596;SDS011;70000;51.176;-115.568;2023-05-07T11:38:42;9.60;;;4.30;;
69596;SDS011;70000;51.176;-115.568;2023-05-07T11:41:12;8.10;;;4.70;;
69596;SDS011;70000;51.176;-115.568;2023-05-07T11:44:01;10.90;;;5.20;;
69596;SDS011;70000;51.176;-115.568;2023-05-07T11:46:30;9.70;;;5.70;;
69596;SDS011;70000;51.176;-115.568;2023-05-07T11:49:00;9.90;;;5.30;;
69596;SDS011;70000;51.176;-115.568;2023-05-07T11:51:30;10.50;;;5.20;;
69596;SDS011;70000;51.176;-115.568;2023-05-07T11:54:00;10.00;;;4.90;;
69596;SDS011;70000;51.176;-115.568;2023-05-07T11:56:35;8.80;;;4.70;;
69596;SDS011;70000;51.176;-115.568;2023-05-07T11:59:07;8.20;;;4.40;;
69596;SDS011;70000;51.176;-115.568;2023-05-07T12:01:37;7.90;;;4.10;;
69596;SDS011;70000;51.176;-115.568;2023-05-07T12:04:06;8.10;;;3.80;;
69596;SDS011;70000;51.176;-115.568;2023-05-07T12:06:38;8.40;;;3.70;;
69596;SDS011;70000;51.176;-115.568;2023-05-07T12:09:07;7.60;;;3.80;;
69596;SDS011;70000;51.176;-115.568;2023-05-07T12:11:39;7.70;;;3.90;;
69596;SDS011;70000;51.176;-115.568;2023-05-07T12:14:08;10.90;;;4.90;;
69596;SDS011;70000;51.176;-115.568;2023-05-07T12:16:40;8.60;;;4.50;;
69596;SDS011;70000;51.176;-115.568;2023-05-07T12:19:09;9.40;;;5.40;;
69596;SDS011;70000;51.176;-115.568;2023-05-07T12:21:42;9.20;;;5.30;;
69596;SDS011;70000;51.176;-115.568;2023-05-07T12:24:14;10.70;;;5.70;;
69596;SDS011;70000;51.176;-115.568;2023-05-07T12:26:43;9.70;;;5.20;;
69596;SDS011;70000;51.176;-115.568;2023-05-07T12:29:13;9.40;;;5.30;;
69596;SDS011;70000;51.176;-115.568;2023-05-07T12:31:44;9.40;;;5.40;;
69596;SDS011;70000;51.176;-115.568;2023-05-07T12:34:14;9.70;;;5.20;;
69596;SDS011;70000;51.176;-115.568;2023-05-07T12:36:48;10.00;;;5.70;;
69596;SDS011;70000;51.176;-115.568;2023-05-07T12:39:17;8.80;;;4.90;;
69596;SDS011;70000;51.176;-115.568;2023-05-07T12:41:56;13.20;;;6.00;;
69596;SDS011;70000;51.176;-115.568;2023-05-07T12:44:34;10.50;;;6.10;;
69596;SDS011;70000;51.176;-115.568;2023-05-07T12:47:04;10.60;;;6.30;;
69596;SDS011;70000;51.176;-115.568;2023-05-07T12:49:34;11.30;;;6.50;;
69596;SDS011;70000;51.176;-115.568;2023-05-07T12:52:06;10.40;;;6.20;;
69596;SDS011;70000;51.176;-115.568;2023-05-07T12:54:38;9.90;;;5.80;;
69596;SDS011;70000;51.176;-115.568;2023-05-07T12:57:09;8.70;;;4.40;;
69596;SDS011;70000;51.176;-115.568;2023-05-07T12:59:44;7.90;;;4.40;;
69596;SDS011;70000;51.176;-115.568;2023-05-07T13:02:14;8.30;;;4.50;;
69596;SDS011;70000;51.176;-115.568;2023-05-07T13:04:44;11.00;;;4.80;;
69596;SDS011;70000;51.176;-115.568;2023-05-07T13:07:13;8.60;;;4.50;;
69596;SDS011;70000;51.176;-115.568;2023-05-07T13:09:42;9.60;;;4.30;;
69596;SDS011;70000;51.176;-115.568;2023-05-07T13:12:11;8.80;;;5.10;;
69596;SDS011;70000;51.176;-115.568;2023-05-07T13:14:40;8.70;;;4.90;;
69596;SDS011;70000;51.176;-115.568;2023-05-07T13:17:09;7.60;;;4.50;;
69596;SDS011;70000;51.176;-115.568;2023-05-07T13:19:41;8.00;;;4.20;;
69596;SDS011;70000;51.176;-115.568;2023-05-07T13:22:10;10.50;;;4.40;;
69596;SDS011;70000;51.176;-115.568;2023-05-07T13:24:40;8.20;;;4.00;;
69596;SDS011;70000;51.176;-115.568;2023-05-07T13:27:11;8.40;;;4.40;;
69596;SDS011;70000;51.176;-115.568;2023-05-07T13:29:40;9.00;;;4.10;;
69596;SDS011;70000;51.176;-115.568;2023-05-07T13:32:09;9.50;;;4.00;;
69596;SDS011;70000;51.176;-115.568;2023-05-07T13:34:38;7.90;;;3.70;;
69596;SDS011;70000;51.176;-115.568;2023-05-07T13:37:07;7.50;;;3.70;;
69596;SDS011;70000;51.176;-115.568;2023-05-07T13:39:38;7.20;;;4.30;;
69596;SDS011;70000;51.176;-115.568;2023-05-07T13:42:08;6.70;;;3.50;;
69596;SDS011;70000;51.176;-115.568;2023-05-07T13:44:37;6.40;;;2.90;;
69596;SDS011;70000;51.176;-115.568;2023-05-07T13:47:12;6.10;;;3.00;;
69596;SDS011;70000;51.176;-115.568;2023-05-07T13:49:42;6.60;;;3.40;;
69596;SDS011;70000;51.176;-115.568;2023-05-07T13:52:11;7.60;;;3.80;;
69596;SDS011;70000;51.176;-115.568;2023-05-07T13:54:40;7.10;;;3.30;;
69596;SDS011;70000;51.176;-115.568;2023-05-07T13:57:09;6.60;;;3.70;;
69596;SDS011;70000;51.176;-115.568;2023-05-07T13:59:38;6.70;;;3.80;;
69596;SDS011;70000;51.176;-115.568;2023-05-07T14:02:07;7.90;;;3.90;;
69596;SDS011;70000;51.176;-115.568;2023-05-07T14:04:37;7.30;;;4.20;;
69596;SDS011;70000;51.176;-115.568;2023-05-07T14:07:06;8.00;;;3.90;;
69596;SDS011;70000;51.176;-115.568;2023-05-07T14:09:36;8.00;;;3.80;;
69596;SDS011;70000;51.176;-115.568;2023-05-07T14:12:05;8.30;;;4.30;;
69596;SDS011;70000;51.176;-115.568;2023-05-07T14:14:35;8.40;;;4.20;;
69596;SDS011;70000;51.176;-115.568;2023-05-07T14:17:07;7.30;;;4.40;;
69596;SDS011;70000;51.176;-115.568;2023-05-07T14:19:36;7.90;;;4.30;;
69596;SDS011;70000;51.176;-115.568;2023-05-07T14:22:06;7.90;;;4.50;;
69596;SDS011;70000;51.176;-115.568;2023-05-07T14:24:35;8.70;;;4.70;;
69596;SDS011;70000;51.176;-115.568;2023-05-07T14:27:05;10.40;;;5.00;;
69596;SDS011;70000;51.176;-115.568;2023-05-07T14:29:34;8.10;;;5.00;;
69596;SDS011;70000;51.176;-115.568;2023-05-07T14:34:48;10.30;;;5.30;;
69596;SDS011;70000;51.176;-115.568;2023-05-07T14:37:18;10.10;;;5.80;;
69596;SDS011;70000;51.176;-115.568;2023-05-07T14:39:48;8.80;;;5.50;;
69596;SDS011;70000;51.176;-115.568;2023-05-07T14:42:18;10.80;;;5.30;;
69596;SDS011;70000;51.176;-115.568;2023-05-07T14:44:47;10.40;;;5.40;;
69596;SDS011;70000;51.176;-115.568;2023-05-07T14:47:17;8.60;;;5.10;;
69596;SDS011;70000;51.176;-115.568;2023-05-07T14:49:46;9.90;;;4.70;;
69596;SDS011;70000;51.176;-115.568;2023-05-07T14:52:16;9.30;;;4.20;;
69596;SDS011;70000;51.176;-115.568;2023-05-07T14:54:45;7.00;;;3.40;;
69596;SDS011;70000;51.176;-115.568;2023-05-07T14:57:15;7.50;;;3.70;;
69596;SDS011;70000;51.176;-115.568;2023-05-07T14:59:47;8.90;;;4.10;;
69596;SDS011;70000;51.176;-115.568;2023-05-07T15:02:17;7.50;;;4.20;;
69596;SDS011;70000;51.176;-115.568;2023-05-07T15:04:47;7.80;;;4.20;;
69596;SDS011;70000;51.176;-115.568;2023-05-07T15:07:16;7.60;;;4.10;;
69596;SDS011;70000;51.176;-115.568;2023-05-07T15:09:46;7.10;;;3.90;;
69596;SDS011;70000;51.176;-115.568;2023-05-07T15:12:16;6.60;;;3.60;;
69596;SDS011;70000;51.176;-115.568;2023-05-07T15:14:45;7.20;;;3.70;;
69596;SDS011;70000;51.176;-115.568;2023-05-07T15:17:17;6.70;;;4.00;;